Time;durP1;ratioP1;P1;durP2;ratioP2;P2;SDS_P1;SDS_P2;PMS_P1;PMS_P2;Temp;Humidity;BMP_temperature;BMP_pressure;BME280_temperature;BME280_humidity;BME280_pressure;Samples;Min_cycle;Max_cycle;Signal;HPM_P1;HPM_P2
2021/12/08 00:02:16;;;;;;;17.60;4.43;;;3.00;99.90;;;;;;5063551;28;20052;-81
2021/12/08 00:04:43;;;;;;;12.90;3.47;;;3.00;99.90;;;;;;5068207;28;20500;-81
2021/12/08 00:07:09;;;;;;;8.60;3.67;;;3.70;99.90;;;;;;5063428;28;20037;-81
2021/12/08 00:09:48;;;;;;;8.70;3.47;;;3.00;99.90;;;;;;5078307;28;20075;-81
2021/12/08 00:15:00;;;;;;;12.80;3.85;;;2.90;99.90;;;;;;5079315;28;20056;-81
2021/12/08 00:17:25;;;;;;;;;;;2.90;99.90;;;;;;5077721;28;20044;-81
2021/12/08 00:19:51;;;;;;;10.00;3.55;;;2.90;99.90;;;;;;5062067;28;20426;-81
2021/12/08 00:22:17;;;;;;;7.63;3.00;;;2.90;99.90;;;;;;5071768;28;20051;-81
2021/12/08 00:24:44;;;;;;;10.75;3.45;;;3.00;99.90;;;;;;5058358;28;20532;-80
2021/12/08 00:27:10;;;;;;;13.40;3.78;;;3.00;99.90;;;;;;5069483;28;20045;-80
2021/12/08 00:29:36;;;;;;;;;;;3.00;99.90;;;;;;5069213;28;20052;-81
2021/12/08 00:32:02;;;;;;;12.52;3.67;;;3.00;99.90;;;;;;5066963;28;19931;-81
2021/12/08 00:34:30;;;;;;;;;;;3.00;99.90;;;;;;5089652;28;20052;-81
2021/12/08 00:36:59;;;;;;;10.05;3.67;;;3.10;99.90;;;;;;5073517;28;19931;-81
2021/12/08 00:39:25;;;;;;;15.60;3.97;;;3.00;99.90;;;;;;5073113;28;20476;-81
2021/12/08 00:41:51;;;;;;;13.25;4.25;;;3.00;99.90;;;;;;5072693;28;20056;-80
2021/12/08 00:44:17;;;;;;;8.65;3.45;;;3.50;99.90;;;;;;5072694;28;20043;-81
2021/12/08 00:46:44;;;;;;;8.15;3.55;;;3.60;99.90;;;;;;5050689;28;20052;-80
2021/12/08 00:49:12;;;;;;;10.88;3.92;;;3.20;99.90;;;;;;5069022;28;20571;-80
2021/12/08 00:51:38;;;;;;;10.38;3.88;;;3.10;99.90;;;;;;5069024;28;20641;-81
2021/12/08 00:54:04;;;;;;;11.50;3.60;;;3.10;99.90;;;;;;5074586;28;20040;-81
2021/12/08 00:56:30;;;;;;;;;;;3.10;99.90;;;;;;5075045;28;20052;-81
2021/12/08 00:58:56;;;;;;;11.75;4.32;;;3.40;99.90;;;;;;5072491;28;20369;-81
2021/12/08 01:01:22;;;;;;;13.93;3.88;;;3.20;99.90;;;;;;5067945;28;20067;-80
2021/12/08 01:03:49;;;;;;;9.82;4.07;;;3.20;99.90;;;;;;5054852;28;20052;-81
2021/12/08 01:06:17;;;;;;;8.52;3.33;;;3.20;99.90;;;;;;5052228;28;20057;-80
2021/12/08 01:08:43;;;;;;;10.63;3.33;;;3.20;99.90;;;;;;5052043;28;20083;-81
2021/12/08 01:11:14;;;;;;;12.65;3.80;;;3.40;99.90;;;;;;5075555;28;20048;-81
2021/12/08 01:13:40;;;;;;;11.07;3.63;;;3.20;99.90;;;;;;5088708;28;20550;-81
2021/12/08 01:16:06;;;;;;;12.20;3.60;;;3.20;99.90;;;;;;5067394;28;20071;-81
2021/12/08 01:18:33;;;;;;;10.32;3.53;;;3.20;99.90;;;;;;5063398;28;20051;-81
2021/12/08 01:21:01;;;;;;;8.75;3.67;;;3.20;99.90;;;;;;5069105;28;20512;-81
2021/12/08 01:23:27;;;;;;;11.90;3.38;;;3.70;99.90;;;;;;5051860;28;20044;-81
2021/12/08 01:25:54;;;;;;;13.50;4.28;;;3.20;99.90;;;;;;5052339;28;20055;-81
2021/12/08 01:28:22;;;;;;;9.55;3.72;;;3.20;99.90;;;;;;5078484;28;20056;-81
2021/12/08 01:30:50;;;;;;;11.50;3.83;;;3.20;99.90;;;;;;5088361;28;20052;-81
2021/12/08 01:33:17;;;;;;;12.65;4.00;;;3.30;99.90;;;;;;5088460;28;20052;-81
2021/12/08 01:35:43;;;;;;;12.15;3.95;;;3.30;99.90;;;;;;5084645;28;20388;-81
2021/12/08 01:38:09;;;;;;;11.60;4.72;;;3.60;99.90;;;;;;5052396;28;20041;-81
2021/12/08 01:40:35;;;;;;;9.43;3.58;;;3.30;99.90;;;;;;5061367;28;20147;-81
2021/12/08 01:43:02;;;;;;;7.57;4.10;;;3.30;99.90;;;;;;5068453;28;20124;-81
2021/12/08 01:48:17;;;;;;;10.25;3.90;;;3.30;99.90;;;;;;5088153;28;20052;-81
2021/12/08 01:50:46;;;;;;;6.47;3.17;;;3.40;99.90;;;;;;5088941;28;20126;-81
2021/12/08 01:53:12;;;;;;;9.07;3.50;;;3.30;99.90;;;;;;5089367;28;20362;-81
2021/12/08 01:55:40;;;;;;;8.95;3.78;;;3.20;99.90;;;;;;5052048;28;20047;-81
2021/12/08 01:58:07;;;;;;;14.82;4.63;;;3.20;99.90;;;;;;5084418;28;20058;-81
2021/12/08 02:00:35;;;;;;;9.40;3.67;;;3.60;99.90;;;;;;5069372;28;20052;-81
2021/12/08 02:03:01;;;;;;;7.22;3.15;;;3.20;99.90;;;;;;5050934;28;20053;-81
2021/12/08 02:05:27;;;;;;;14.18;3.53;;;3.20;99.90;;;;;;5068224;28;20049;-81
2021/12/08 02:07:54;;;;;;;5.53;2.90;;;3.20;99.90;;;;;;5067984;28;20048;-81
2021/12/08 02:10:20;;;;;;;8.73;3.50;;;3.30;99.90;;;;;;5070552;28;20090;-81
2021/12/08 02:12:47;;;;;;;6.35;2.95;;;3.20;99.90;;;;;;5072094;28;20048;-80
2021/12/08 02:15:14;;;;;;;7.53;2.97;;;3.20;99.90;;;;;;5040737;28;20143;-81
2021/12/08 02:17:40;;;;;;;9.07;3.28;;;3.20;99.90;;;;;;5087113;28;20101;-81
2021/12/08 02:20:09;;;;;;;8.27;3.15;;;3.40;99.90;;;;;;5072569;28;20083;-81
2021/12/08 02:22:35;;;;;;;9.98;3.40;;;3.30;99.90;;;;;;5074150;28;20056;-80
2021/12/08 02:25:02;;;;;;;8.10;3.40;;;3.30;99.90;;;;;;5075789;28;20443;-80
2021/12/08 02:27:30;;;;;;;7.68;3.20;;;3.20;99.90;;;;;;5092109;28;20067;-81
2021/12/08 02:30:05;;;;;;;11.63;3.13;;;3.20;99.90;;;;;;5091751;28;20056;-81
2021/12/08 02:46:40;;;;;;;9.48;3.42;;;3.30;99.90;;;;;;5074168;28;20048;-81
2021/12/08 02:49:01;;;;;;;8.95;4.28;;;3.20;99.90;;;;;;5083041;28;20103;-80
2021/12/08 02:51:27;;;;;;;9.85;3.90;;;3.20;99.90;;;;;;5087764;28;20132;-81
2021/12/08 02:53:53;;;;;;;10.27;3.60;;;3.20;99.90;;;;;;5073064;28;20043;-81
2021/12/08 02:56:19;;;;;;;11.20;3.78;;;3.30;99.90;;;;;;5072700;28;20068;-81
2021/12/08 02:58:46;;;;;;;9.82;4.15;;;3.40;99.90;;;;;;5091401;28;20040;-81
2021/12/08 03:01:12;;;;;;;11.90;3.85;;;3.30;99.90;;;;;;5090946;28;20048;-81
2021/12/08 03:03:39;;;;;;;8.88;3.88;;;3.30;99.90;;;;;;5070189;28;20052;-80
2021/12/08 03:06:05;;;;;;;8.45;3.70;;;3.30;99.90;;;;;;5091924;28;20058;-80
2021/12/08 03:08:31;;;;;;;11.00;4.10;;;3.30;99.90;;;;;;5074954;28;20048;-81
2021/12/08 03:10:57;;;;;;;10.77;3.90;;;3.30;99.90;;;;;;5084396;28;20453;-80
2021/12/08 03:13:30;;;;;;;9.77;3.90;;;3.40;99.90;;;;;;5054807;28;20067;-81
2021/12/08 03:15:57;;;;;;;9.95;4.43;;;3.40;99.90;;;;;;5053125;28;20045;-81
2021/12/08 03:18:30;;;;;;;20.52;5.50;;;3.40;99.90;;;;;;5070548;28;20040;-81
2021/12/08 03:20:56;;;;;;;10.88;4.13;;;3.50;99.90;;;;;;5079748;28;20052;-81
2021/12/08 03:23:28;;;;;;;7.85;4.38;;;3.50;99.90;;;;;;5071227;28;20556;-80
2021/12/08 03:25:56;;;;;;;9.18;4.38;;;3.50;99.90;;;;;;5070524;28;20236;-81
2021/12/08 03:28:27;;;;;;;9.85;4.35;;;3.50;99.90;;;;;;5054381;28;20062;-81
2021/12/08 03:31:08;;;;;;;7.93;4.50;;;3.50;99.90;;;;;;5088569;28;20765;-81
2021/12/08 03:33:35;;;;;;;11.80;5.07;;;3.60;99.90;;;;;;5071870;28;20048;-80
2021/12/08 03:36:01;;;;;;;13.75;5.40;;;3.60;99.90;;;;;;5073913;28;20534;-82
2021/12/08 03:38:27;;;;;;;11.80;5.15;;;3.60;99.90;;;;;;5082627;28;20056;-80
2021/12/08 03:40:56;;;;;;;11.82;4.70;;;3.60;99.90;;;;;;5069978;28;20064;-81
2021/12/08 03:43:23;;;;;;;11.73;5.30;;;3.70;99.90;;;;;;5072064;28;20138;-80
2021/12/08 03:45:49;;;;;;;;;;;4.10;99.90;;;;;;5080802;28;20083;-81
2021/12/08 03:48:27;;;;;;;13.80;5.50;;;3.70;99.90;;;;;;5081201;28;20019;-81
2021/12/08 03:50:54;;;;;;;12.60;6.10;;;3.70;99.90;;;;;;5090483;28;20766;-81
2021/12/08 03:53:20;;;;;;;13.27;6.00;;;3.70;99.90;;;;;;5072895;28;20053;-81
2021/12/08 03:55:48;;;;;;;15.07;6.57;;;3.80;99.90;;;;;;5036869;28;20118;-80
2021/12/08 03:58:15;;;;;;;12.93;6.00;;;3.80;99.90;;;;;;5053998;28;20397;-81
2021/12/08 04:00:42;;;;;;;16.67;6.32;;;3.80;99.90;;;;;;5069260;28;20049;-81
2021/12/08 04:03:09;;;;;;;11.05;6.68;;;4.20;99.90;;;;;;5069846;28;20037;-80
2021/12/08 04:05:57;;;;;;;12.70;6.50;;;3.90;99.90;;;;;;5074570;28;20047;-81
2021/12/08 04:08:31;;;;;;;18.27;6.45;;;3.90;99.90;;;;;;5070387;28;20044;-80
2021/12/08 04:10:59;;;;;;;11.93;6.32;;;3.90;99.90;;;;;;5084161;28;20083;-81
2021/12/08 04:13:34;;;;;;;13.95;6.75;;;4.10;99.90;;;;;;5073451;28;20513;-78
2021/12/08 04:16:00;;;;;;;11.27;6.22;;;3.90;99.90;;;;;;5055938;28;20243;-79
2021/12/08 04:18:26;;;;;;;14.73;6.40;;;3.90;99.90;;;;;;5052599;28;20076;-78
2021/12/08 04:20:55;;;;;;;12.23;6.70;;;3.90;99.90;;;;;;5069787;28;20134;-79
2021/12/08 04:23:23;;;;;;;13.13;6.50;;;4.00;99.90;;;;;;5053621;28;20102;-79
2021/12/08 04:25:54;;;;;;;18.60;7.38;;;4.00;99.90;;;;;;5069338;28;20044;-79
2021/12/08 04:28:26;;;;;;;15.02;7.60;;;4.00;99.90;;;;;;5084795;28;20059;-79
2021/12/08 04:30:57;;;;;;;13.25;6.78;;;4.00;99.90;;;;;;5088591;28;20075;-79
2021/12/08 04:33:24;;;;;;;14.88;7.38;;;4.10;99.90;;;;;;5087923;28;20054;-79
2021/12/08 04:35:53;;;;;;;12.40;6.75;;;4.10;99.90;;;;;;5053354;28;20048;-78
2021/12/08 04:38:28;;;;;;;14.25;7.07;;;4.10;99.90;;;;;;5059612;28;20047;-79
2021/12/08 04:41:07;;;;;;;18.00;7.60;;;4.10;99.90;;;;;;5089070;28;20052;-78
2021/12/08 04:44:00;;;;;;;11.65;6.82;;;4.10;99.90;;;;;;5089906;28;20084;-79
2021/12/08 05:00:40;;;;;;;14.65;7.13;;;4.20;99.90;;;;;;5085628;28;20060;-78
2021/12/08 05:03:20;;;;;;;13.55;6.82;;;4.40;99.90;;;;;;5075784;28;20101;-78
2021/12/08 05:08:40;;;;;;;13.55;7.47;;;4.30;99.90;;;;;;5069166;28;20135;-78
2021/12/08 05:11:11;;;;;;;13.85;7.60;;;4.20;99.90;;;;;;5067907;28;20068;-78
2021/12/08 05:13:38;;;;;;;11.63;6.55;;;4.20;99.90;;;;;;5068797;28;20083;-79
2021/12/08 05:16:04;;;;;;;15.52;6.75;;;4.30;99.90;;;;;;5061483;28;20094;-79
2021/12/08 05:18:37;;;;;;;15.60;7.22;;;4.20;99.90;;;;;;5082275;28;20052;-78
2021/12/08 05:21:17;;;;;;;11.80;6.80;;;4.30;99.90;;;;;;5068819;28;20110;-79
2021/12/08 05:23:58;;;;;;;23.75;7.60;;;4.40;99.90;;;;;;5068728;28;20049;-78
2021/12/08 05:26:57;;;;;;;18.60;6.45;;;4.30;99.90;;;;;;5069087;28;20056;-78
2021/12/08 05:29:27;;;;;;;14.80;6.32;;;4.30;99.90;;;;;;5079417;28;20064;-78
2021/12/08 05:31:55;;;;;;;14.85;6.70;;;4.30;99.90;;;;;;5049674;28;20056;-78
2021/12/08 05:34:21;;;;;;;15.48;7.15;;;4.30;99.90;;;;;;5052711;28;20064;-78
2021/12/08 05:36:48;;;;;;;16.10;6.90;;;4.30;99.90;;;;;;5068754;28;20048;-79
2021/12/08 05:39:20;;;;;;;13.95;7.22;;;4.30;99.90;;;;;;5075454;28;20051;-79
2021/12/08 05:41:49;;;;;;;14.13;7.18;;;4.30;99.90;;;;;;5069654;28;20063;-79
2021/12/08 05:44:15;;;;;;;15.85;7.00;;;4.30;99.90;;;;;;5073486;28;20050;-78
2021/12/08 05:46:44;;;;;;;13.80;7.03;;;4.40;99.90;;;;;;5071391;28;20095;-79
2021/12/08 05:49:14;;;;;;;14.95;7.00;;;4.30;99.90;;;;;;5055452;28;20448;-78
2021/12/08 05:51:42;;;;;;;14.07;7.35;;;4.30;99.90;;;;;;5061397;28;20178;-79
2021/12/08 05:54:14;;;;;;;13.20;6.45;;;4.30;99.90;;;;;;5075385;28;20113;-79
2021/12/08 05:56:41;;;;;;;11.95;6.50;;;4.30;99.90;;;;;;5075578;28;20149;-79
2021/12/08 05:59:08;;;;;;;10.88;6.53;;;4.20;99.90;;;;;;5075451;28;20047;-79
2021/12/08 06:01:38;;;;;;;14.65;6.40;;;4.20;99.90;;;;;;5074310;28;20044;-78
2021/12/08 06:04:06;;;;;;;14.10;6.65;;;4.40;99.90;;;;;;5085134;28;20052;-79
2021/12/08 06:06:33;;;;;;;12.13;6.25;;;4.20;99.90;;;;;;5072733;28;20048;-78
2021/12/08 06:08:59;;;;;;;12.13;6.25;;;4.20;99.90;;;;;;5090896;28;20052;-78
2021/12/08 06:11:27;;;;;;;12.15;6.28;;;4.20;99.90;;;;;;5075938;28;20055;-78
2021/12/08 06:13:59;;;;;;;14.55;6.05;;;4.10;99.90;;;;;;5085254;28;20052;-78
2021/12/08 06:16:31;;;;;;;17.48;6.93;;;4.10;99.90;;;;;;5071129;28;20135;-78
2021/12/08 06:18:57;;;;;;;12.27;6.18;;;4.20;99.90;;;;;;5071575;28;20049;-78
2021/12/08 06:21:26;;;;;;;15.18;6.30;;;4.20;99.90;;;;;;5075287;28;20089;-79
2021/12/08 06:23:54;;;;;;;11.82;6.10;;;4.30;99.90;;;;;;5070990;28;20718;-78
2021/12/08 06:26:22;;;;;;;13.25;5.80;;;4.20;99.90;;;;;;5062653;28;20048;-79
2021/12/08 06:28:49;;;;;;;16.13;5.88;;;4.30;99.90;;;;;;5074803;28;20060;-78
2021/12/08 06:31:19;;;;;;;15.77;5.57;;;4.80;99.90;;;;;;5076791;28;20083;-79
2021/12/08 06:33:45;;;;;;;11.80;5.65;;;4.40;99.90;;;;;;5070964;28;20602;-78
2021/12/08 06:36:17;;;;;;;13.93;5.30;;;4.40;99.90;;;;;;5071207;28;20060;-79
2021/12/08 06:38:44;;;;;;;15.63;5.50;;;4.50;99.90;;;;;;5070079;28;20048;-79
2021/12/08 06:41:25;;;;;;;14.48;5.20;;;4.70;99.90;;;;;;5084856;28;20135;-79
2021/12/08 06:43:57;;;;;;;10.45;4.50;;;4.60;99.90;;;;;;5071856;28;20040;-78
2021/12/08 06:46:23;;;;;;;10.85;4.63;;;4.60;99.90;;;;;;5064726;28;20086;-78
2021/12/08 06:48:53;;;;;;;13.48;4.07;;;5.20;99.90;;;;;;5054295;28;20041;-78
2021/12/08 06:51:33;;;;;;;8.73;4.15;;;4.60;99.90;;;;;;5081045;28;20378;-79
2021/12/08 06:54:07;;;;;;;11.30;4.07;;;4.60;99.90;;;;;;5075508;28;20091;-78
2021/12/08 06:56:39;;;;;;;9.57;3.70;;;4.60;99.90;;;;;;5078666;28;20070;-78
2021/12/08 06:59:20;;;;;;;11.80;3.67;;;4.60;99.90;;;;;;5087677;28;20064;-78
2021/12/08 07:02:03;;;;;;;11.13;3.95;;;4.60;99.90;;;;;;5073208;28;20467;-79
2021/12/08 07:04:51;;;;;;;9.43;3.33;;;4.70;99.90;;;;;;5074777;28;20468;-78
2021/12/08 07:07:19;;;;;;;10.60;3.50;;;4.70;99.90;;;;;;5072741;28;20049;-79
2021/12/08 07:09:59;;;;;;;11.90;3.58;;;4.70;99.90;;;;;;5072810;28;20060;-78
2021/12/08 07:12:30;;;;;;;7.57;3.10;;;4.60;99.90;;;;;;5069786;28;20056;-79
2021/12/08 07:15:08;;;;;;;9.82;3.70;;;4.60;99.90;;;;;;5054647;28;20051;-78
2021/12/08 07:17:38;;;;;;;10.75;3.63;;;4.60;99.90;;;;;;5070003;28;20510;-79
2021/12/08 07:20:17;;;;;;;9.18;3.15;;;4.70;99.90;;;;;;5077657;28;20774;-79
2021/12/08 07:22:46;;;;;;;10.30;3.20;;;4.70;99.90;;;;;;5074329;28;20404;-79
2021/12/08 07:25:14;;;;;;;12.13;3.00;;;4.70;99.90;;;;;;5073619;28;20063;-79
2021/12/08 07:27:40;;;;;;;9.23;3.38;;;4.90;99.90;;;;;;5071590;28;20044;-78
2021/12/08 07:30:14;;;;;;;11.93;3.00;;;4.90;99.90;;;;;;5059445;28;20153;-79
2021/12/08 07:32:41;;;;;;;9.40;3.30;;;4.80;99.90;;;;;;5069507;28;20068;-79
2021/12/08 07:35:42;;;;;;;8.20;2.70;;;4.70;99.90;;;;;;5068574;28;20151;-77
2021/12/08 07:38:13;;;;;;;7.35;2.50;;;4.80;99.90;;;;;;5070312;28;20611;-79
2021/12/08 07:40:44;;;;;;;6.60;2.47;;;4.70;99.90;;;;;;5053429;28;20528;-78
2021/12/08 07:43:14;;;;;;;7.53;2.60;;;4.80;99.90;;;;;;5065077;28;20404;-78
2021/12/08 07:45:46;;;;;;;8.02;2.47;;;4.90;99.90;;;;;;5089919;28;20119;-78
2021/12/08 07:48:19;;;;;;;11.93;2.47;;;4.80;99.90;;;;;;5072373;28;20083;-79
2021/12/08 07:50:51;;;;;;;9.13;2.80;;;4.80;99.90;;;;;;5073189;28;20051;-78
2021/12/08 07:53:21;;;;;;;7.75;2.80;;;4.80;99.90;;;;;;5055729;28;20064;-79
2021/12/08 07:55:50;;;;;;;10.73;2.85;;;4.90;99.90;;;;;;5085752;28;20064;-78
2021/12/08 07:58:20;;;;;;;7.93;2.65;;;4.80;99.90;;;;;;5070053;28;20052;-81
2021/12/08 08:00:48;;;;;;;8.65;2.45;;;4.80;99.90;;;;;;5052640;28;20520;-77
2021/12/08 08:03:15;;;;;;;9.77;2.67;;;4.80;99.90;;;;;;5069489;28;20098;-79
2021/12/08 08:05:45;;;;;;;10.07;2.70;;;4.70;99.90;;;;;;5073365;28;20499;-85
2021/12/08 08:08:14;;;;;;;7.60;2.20;;;4.70;99.90;;;;;;5089131;28;20490;-79
2021/12/08 08:10:49;;;;;;;10.75;2.60;;;4.70;99.90;;;;;;5086651;28;20056;-78
2021/12/08 08:13:17;;;;;;;6.25;2.15;;;4.60;99.90;;;;;;5069478;28;20052;-78
2021/12/08 08:15:48;;;;;;;7.93;2.30;;;4.60;99.90;;;;;;5035630;28;20457;-79
2021/12/08 08:18:18;;;;;;;8.90;2.03;;;4.60;99.90;;;;;;5068049;28;20249;-80
2021/12/08 08:20:50;;;;;;;10.07;2.30;;;4.70;99.90;;;;;;5054239;28;20481;-82
2021/12/08 08:23:20;;;;;;;7.80;2.30;;;4.70;99.90;;;;;;5083650;28;20056;-78
2021/12/08 08:25:48;;;;;;;8.00;2.35;;;4.70;99.90;;;;;;5087863;28;20059;-78
2021/12/08 08:28:16;;;;;;;8.40;2.20;;;4.70;99.90;;;;;;5089460;28;20044;-78
2021/12/08 08:31:09;;;;;;;8.95;2.28;;;4.80;99.90;;;;;;5085513;28;20074;-77
2021/12/08 08:33:39;;;;;;;12.13;2.40;;;4.90;99.90;;;;;;5063850;28;20056;-78
2021/12/08 08:36:12;;;;;;;9.45;2.60;;;4.90;99.90;;;;;;5069221;28;20127;-78
2021/12/08 08:38:46;;;;;;;11.55;2.22;;;5.20;99.90;;;;;;5083866;28;20056;-78
2021/12/08 08:41:26;;;;;;;9.25;2.65;;;4.90;99.90;;;;;;5072751;28;20401;-78
2021/12/08 08:43:54;;;;;;;7.55;2.08;;;5.10;99.90;;;;;;5057348;28;20040;-78
2021/12/08 08:46:26;;;;;;;8.73;2.00;;;4.90;99.90;;;;;;5074726;28;20043;-78
2021/12/08 08:48:56;;;;;;;9.20;2.30;;;4.90;99.90;;;;;;5074133;28;20047;-78
2021/12/08 08:51:39;;;;;;;12.90;2.15;;;5.00;99.90;;;;;;5068049;28;20134;-78
2021/12/08 08:54:19;;;;;;;10.02;2.35;;;5.00;99.90;;;;;;5072095;28;20048;-78
2021/12/08 08:56:55;;;;;;;8.77;2.25;;;5.00;99.90;;;;;;5069036;28;20159;-79
2021/12/08 08:59:26;;;;;;;9.32;1.92;;;5.00;99.90;;;;;;5071232;28;20040;-79
2021/12/08 09:01:55;;;;;;;10.35;2.25;;;5.10;99.90;;;;;;5068336;28;20748;-79
2021/12/08 09:04:30;;;;;;;12.25;2.47;;;5.10;99.90;;;;;;5081488;28;20052;-79
2021/12/08 09:07:02;;;;;;;10.00;2.28;;;5.20;99.90;;;;;;5070768;28;20056;-79
2021/12/08 09:09:31;;;;;;;10.07;2.22;;;5.20;99.90;;;;;;5070422;28;20040;-83
2021/12/08 09:12:00;;;;;;;10.27;1.92;;;5.20;99.90;;;;;;5073971;28;20048;-78
2021/12/08 09:14:37;;;;;;;6.50;1.98;;;5.30;99.90;;;;;;5068923;28;20044;-78
2021/12/08 09:17:11;;;;;;;12.40;2.80;;;5.40;99.90;;;;;;5072124;28;20049;-78
2021/12/08 09:19:48;;;;;;;9.27;2.65;;;5.40;99.90;;;;;;5076530;28;20083;-78
2021/12/08 09:22:27;;;;;;;11.73;2.30;;;5.50;99.90;;;;;;5088397;28;20120;-85
2021/12/08 09:25:17;;;;;;;6.57;2.33;;;5.50;99.90;;;;;;5076535;28;20052;-77
2021/12/08 09:27:50;;;;;;;9.75;2.65;;;5.50;99.90;;;;;;5079944;28;20044;-77
2021/12/08 09:30:31;;;;;;;10.35;2.58;;;5.50;99.90;;;;;;5078223;28;20052;-81
2021/12/08 09:33:01;;;;;;;15.52;3.00;;;5.50;99.90;;;;;;5051279;28;20045;-78
2021/12/08 09:35:33;;;;;;;8.60;2.00;;;5.50;99.90;;;;;;5068233;28;20135;-77
2021/12/08 09:38:12;;;;;;;12.68;2.75;;;5.40;99.90;;;;;;5052494;28;20052;-78
2021/12/08 09:40:53;;;;;;;11.95;2.38;;;5.40;99.90;;;;;;5066963;28;20051;-77
2021/12/08 09:43:27;;;;;;;11.82;2.50;;;5.40;99.90;;;;;;5089138;28;20051;-78
2021/12/08 09:46:17;;;;;;;10.07;2.60;;;5.50;99.90;;;;;;5087999;28;20051;-80
2021/12/08 09:48:45;;;;;;;9.60;2.40;;;5.50;99.90;;;;;;5071536;28;20127;-78
2021/12/08 09:51:13;;;;;;;16.25;2.30;;;5.50;99.90;;;;;;5048236;28;20055;-78
2021/12/08 09:53:42;;;;;;;8.40;2.05;;;5.60;99.90;;;;;;5087226;28;20147;-78
2021/12/08 09:56:08;;;;;;;8.07;2.38;;;5.60;99.90;;;;;;5082218;28;20048;-78
2021/12/08 09:58:35;;;;;;;11.45;2.60;;;5.70;99.90;;;;;;5080798;28;20574;-78
2021/12/08 10:01:03;;;;;;;18.48;2.88;;;5.60;99.90;;;;;;5038718;28;20072;-78
2021/12/08 10:03:29;;;;;;;6.95;2.10;;;5.70;99.90;;;;;;5060157;28;20074;-78
2021/12/08 10:05:55;;;;;;;8.93;2.67;;;5.70;99.90;;;;;;5070201;28;20044;-79
2021/12/08 10:08:21;;;;;;;7.82;2.50;;;5.60;99.90;;;;;;5067420;28;20052;-78
2021/12/08 10:10:47;;;;;;;8.27;2.67;;;5.70;99.90;;;;;;5074852;28;20048;-79
2021/12/08 10:13:15;;;;;;;7.68;2.05;;;5.80;99.90;;;;;;5086976;28;20078;-79
2021/12/08 10:15:41;;;;;;;5.90;1.95;;;5.80;99.90;;;;;;5057997;28;20194;-79
2021/12/08 10:18:09;;;;;;;9.55;2.60;;;5.90;99.90;;;;;;5047657;28;20043;-79
2021/12/08 10:20:39;;;;;;;9.10;2.10;;;5.90;99.90;;;;;;5056364;28;20052;-79
2021/12/08 10:23:22;;;;;;;7.97;2.20;;;5.90;99.90;;;;;;5056056;28;20048;-78
2021/12/08 10:25:57;;;;;;;12.55;2.78;;;5.90;99.90;;;;;;5067292;28;20074;-79
2021/12/08 10:28:36;;;;;;;7.05;2.10;;;5.90;99.90;;;;;;5073465;28;20046;-81
2021/12/08 10:31:12;;;;;;;7.18;2.20;;;5.90;99.90;;;;;;5071544;28;20048;-79
2021/12/08 10:37:14;;;;;;;6.38;2.00;;;5.90;99.90;;;;;;5044875;28;20067;-79
2021/12/08 10:39:46;;;;;;;6.40;2.35;;;5.90;99.90;;;;;;5072223;28;20047;-79
2021/12/08 10:42:24;;;;;;;12.40;2.92;;;5.90;99.90;;;;;;5075899;28;20048;-80
2021/12/08 10:45:07;;;;;;;6.18;2.00;;;5.90;99.90;;;;;;5066208;28;20464;-80
2021/12/08 10:47:42;;;;;;;10.85;2.53;;;5.90;99.90;;;;;;5092107;28;20044;-79
2021/12/08 10:55:29;;;;;;;7.25;2.55;;;6.00;99.90;;;;;;5091186;28;20069;-80
2021/12/08 10:57:55;;;;;;;7.68;2.42;;;6.10;99.90;;;;;;5094288;28;20048;-81
2021/12/08 11:00:39;;;;;;;4.85;2.25;;;6.20;99.90;;;;;;5075533;28;20108;-80
2021/12/08 11:03:14;;;;;;;7.20;2.47;;;6.30;99.90;;;;;;5081749;28;20048;-80
2021/12/08 11:05:50;;;;;;;12.13;2.95;;;6.40;99.90;;;;;;5057458;28;20496;-80
2021/12/08 11:08:19;;;;;;;9.35;2.42;;;6.40;99.90;;;;;;5074916;28;20044;-81
2021/12/08 11:10:53;;;;;;;11.57;2.70;;;6.50;99.90;;;;;;5060487;28;20048;-80
2021/12/08 11:13:30;;;;;;;6.68;2.50;;;6.80;99.90;;;;;;5091843;28;20043;-81
2021/12/08 11:16:11;;;;;;;11.15;2.45;;;7.20;99.90;;;;;;5093384;28;20144;-81
2021/12/08 11:18:40;;;;;;;8.27;2.40;;;7.40;99.90;;;;;;5072262;28;20087;-80
2021/12/08 11:21:16;;;;;;;13.95;2.35;;;7.60;99.90;;;;;;5057470;28;20408;-84
2021/12/08 11:23:45;;;;;;;11.98;2.40;;;8.00;99.90;;;;;;5074356;28;20040;-80
2021/12/08 11:26:11;;;;;;;7.57;2.00;;;7.80;99.90;;;;;;5084335;28;20426;-82
2021/12/08 11:28:37;;;;;;;11.13;2.60;;;7.80;99.90;;;;;;5057182;28;20040;-81
2021/12/08 11:31:18;;;;;;;10.15;2.13;;;7.90;99.90;;;;;;5055918;28;20386;-81
2021/12/08 11:33:53;;;;;;;7.30;2.22;;;8.00;99.90;;;;;;5072506;28;20059;-81
2021/12/08 11:36:24;;;;;;;9.10;1.90;;;7.80;99.90;;;;;;5074434;28;20087;-80
2021/12/08 11:38:50;;;;;;;10.57;2.30;;;7.50;99.90;;;;;;5073195;28;20067;-81
2021/12/08 11:41:34;;;;;;;11.63;2.20;;;7.20;99.90;;;;;;5076399;28;20083;-80
2021/12/08 11:44:01;;;;;;;11.45;1.98;;;6.90;99.90;;;;;;5074534;28;20363;-80
2021/12/08 11:46:28;;;;;;;12.38;2.60;;;7.00;99.90;;;;;;5065050;28;20077;-81
2021/12/08 11:49:04;;;;;;;10.32;2.30;;;7.00;99.90;;;;;;5071249;28;20050;-80
2021/12/08 11:51:42;;;;;;;10.32;2.25;;;7.10;99.90;;;;;;5076980;28;20078;-80
2021/12/08 11:54:28;;;;;;;7.20;2.33;;;7.00;99.90;;;;;;5076594;28;20059;-81
2021/12/08 11:57:10;;;;;;;8.52;2.00;;;7.00;99.90;;;;;;5068452;28;20126;-80
2021/12/08 11:59:45;;;;;;;8.95;2.17;;;6.80;99.90;;;;;;5057839;28;20126;-80
2021/12/08 12:02:15;;;;;;;7.30;2.33;;;6.70;99.90;;;;;;5056668;28;20126;-80
2021/12/08 12:04:45;;;;;;;9.23;2.35;;;6.60;99.90;;;;;;5080631;28;20452;-80
2021/12/08 12:07:13;;;;;;;11.77;2.70;;;6.50;99.90;;;;;;5081038;28;20518;-80
2021/12/08 12:09:39;;;;;;;7.07;1.95;;;6.50;99.90;;;;;;5072562;28;20052;-80
2021/12/08 12:12:06;;;;;;;10.75;2.25;;;6.40;99.90;;;;;;5056312;28;20051;-80
2021/12/08 12:14:32;;;;;;;10.73;2.22;;;6.40;99.90;;;;;;5053939;28;20058;-80
2021/12/08 12:16:57;;;;;;;7.82;2.03;;;6.40;99.90;;;;;;5061221;28;20051;-80
2021/12/08 12:19:27;;;;;;;8.05;2.08;;;6.60;99.90;;;;;;5057736;28;20044;-80
2021/12/08 12:22:11;;;;;;;10.45;2.28;;;6.40;99.90;;;;;;5091742;28;20039;-79
2021/12/08 12:25:09;;;;;;;7.40;2.13;;;6.40;99.90;;;;;;5070274;28;20062;-79
2021/12/08 12:28:09;;;;;;;6.75;2.10;;;6.40;99.90;;;;;;5063352;28;20055;-79
2021/12/08 12:30:50;;;;;;;10.80;2.33;;;6.30;99.90;;;;;;5076198;28;20117;-79
2021/12/08 12:33:18;;;;;;;6.13;1.83;;;6.40;99.90;;;;;;5074595;28;20055;-79
2021/12/08 12:35:56;;;;;;;9.35;2.58;;;6.30;99.90;;;;;;5077518;28;20044;-79
2021/12/08 12:38:37;;;;;;;11.32;2.58;;;6.40;99.90;;;;;;5076733;28;20048;-80
2021/12/08 12:41:05;;;;;;;8.27;2.05;;;6.30;99.90;;;;;;5062118;28;20113;-80
2021/12/08 12:43:37;;;;;;;6.93;2.08;;;6.30;99.90;;;;;;5077638;28;20059;-79
2021/12/08 12:46:07;;;;;;;9.25;1.90;;;6.30;99.90;;;;;;5073550;28;20532;-79
2021/12/08 12:48:37;;;;;;;11.30;3.13;;;6.20;99.90;;;;;;5076510;28;20042;-81
2021/12/08 12:51:09;;;;;;;9.55;2.38;;;6.40;99.90;;;;;;5067124;28;20496;-80
2021/12/08 12:53:49;;;;;;;11.07;2.28;;;6.30;99.90;;;;;;5074877;28;20062;-81
2021/12/08 12:56:39;;;;;;;8.75;2.08;;;6.20;99.90;;;;;;5062115;28;20054;-82
2021/12/08 12:59:16;;;;;;;10.18;2.35;;;6.20;99.90;;;;;;5081464;28;20063;-79
2021/12/08 13:01:46;;;;;;;8.73;2.00;;;6.20;99.90;;;;;;5054675;28;20048;-79
2021/12/08 13:04:21;;;;;;;7.97;2.03;;;6.20;99.90;;;;;;5082328;28;20055;-79
2021/12/08 13:07:01;;;;;;;12.00;2.30;;;6.20;99.90;;;;;;5088494;28;20052;-79
2021/12/08 13:09:35;;;;;;;8.30;1.98;;;6.20;99.90;;;;;;5072633;28;20067;-79
2021/12/08 13:12:22;;;;;;;12.18;2.60;;;6.20;99.90;;;;;;5055015;28;20056;-79
2021/12/08 13:15:13;;;;;;;6.40;1.83;;;6.20;99.90;;;;;;5072782;28;20152;-79
2021/12/08 13:17:58;;;;;;;6.93;2.22;;;6.20;99.90;;;;;;5071415;28;20055;-79
2021/12/08 13:20:26;;;;;;;10.52;2.53;;;6.20;99.90;;;;;;5074186;28;20051;-79
2021/12/08 13:22:54;;;;;;;9.48;2.08;;;6.30;99.90;;;;;;5079687;28;20115;-78
2021/12/08 13:25:45;;;;;;;7.32;2.00;;;6.30;99.90;;;;;;5076483;28;20059;-79
2021/12/08 13:28:37;;;;;;;8.23;1.83;;;6.30;99.90;;;;;;5088677;28;20048;-79
2021/12/08 13:31:12;;;;;;;10.00;1.85;;;6.30;99.90;;;;;;5050514;28;20118;-79
2021/12/08 13:34:02;;;;;;;15.43;1.90;;;6.30;99.90;;;;;;5068215;28;20805;-79
2021/12/08 13:36:34;;;;;;;8.90;2.05;;;6.40;99.90;;;;;;5069006;28;20060;-78
2021/12/08 13:39:07;;;;;;;8.98;1.55;;;6.30;99.90;;;;;;5051836;28;20076;-81
2021/12/08 13:41:37;;;;;;;6.50;1.80;;;6.30;99.90;;;;;;5068544;28;20044;-80
2021/12/08 13:44:27;;;;;;;5.72;1.75;;;6.30;99.90;;;;;;5067968;28;20048;-80
2021/12/08 13:46:56;;;;;;;8.90;2.30;;;6.20;99.90;;;;;;5078953;28;20504;-79
2021/12/08 13:49:27;;;;;;;8.07;1.85;;;6.20;99.90;;;;;;5070287;28;20045;-80
2021/12/08 13:52:08;;;;;;;7.22;1.92;;;6.20;99.90;;;;;;5069132;28;20044;-80
2021/12/08 13:54:47;;;;;;;6.80;2.08;;;6.30;99.90;;;;;;5085911;28;20101;-80
2021/12/08 13:57:50;;;;;;;10.27;2.03;;;6.20;99.90;;;;;;5068075;28;20052;-80
2021/12/08 14:00:15;;;;;;;7.22;1.90;;;6.20;99.90;;;;;;5050664;28;20990;-80
2021/12/08 14:02:44;;;;;;;4.95;1.88;;;6.50;99.90;;;;;;5070029;28;20083;-80